sensor_id;sensor_type;location;lat;lon;timestamp;P1;durP1;ratioP1;P2;durP2;ratioP2
11042;SDS011;5574;48.786;10.120;2023-02-08T00:02:00;7.77;;;5.73;;
11042;SDS011;5574;48.786;10.120;2023-02-08T00:04:27;8.20;;;5.80;;
11042;SDS011;5574;48.786;10.120;2023-02-08T00:06:55;6.97;;;5.27;;
11042;SDS011;5574;48.786;10.120;2023-02-08T00:09:21;9.83;;;5.70;;
11042;SDS011;5574;48.786;10.120;2023-02-08T00:11:48;8.40;;;6.27;;
11042;SDS011;5574;48.786;10.120;2023-02-08T00:14:15;7.03;;;5.37;;
11042;SDS011;5574;48.786;10.120;2023-02-08T00:16:42;6.10;;;4.53;;
11042;SDS011;5574;48.786;10.120;2023-02-08T00:19:08;13.23;;;9.07;;
11042;SDS011;5574;48.786;10.120;2023-02-08T00:21:35;13.33;;;9.93;;
11042;SDS011;5574;48.786;10.120;2023-02-08T00:24:03;8.13;;;5.33;;
11042;SDS011;5574;48.786;10.120;2023-02-08T00:26:30;6.53;;;4.83;;
11042;SDS011;5574;48.786;10.120;2023-02-08T00:28:57;12.90;;;7.07;;
11042;SDS011;5574;48.786;10.120;2023-02-08T00:31:23;13.10;;;8.50;;
11042;SDS011;5574;48.786;10.120;2023-02-08T00:33:50;7.77;;;5.60;;
11042;SDS011;5574;48.786;10.120;2023-02-08T00:36:17;7.40;;;5.80;;
11042;SDS011;5574;48.786;10.120;2023-02-08T00:38:43;7.70;;;5.53;;
11042;SDS011;5574;48.786;10.120;2023-02-08T00:41:11;7.43;;;5.50;;
11042;SDS011;5574;48.786;10.120;2023-02-08T00:43:38;7.37;;;5.30;;
11042;SDS011;5574;48.786;10.120;2023-02-08T00:46:05;9.93;;;5.97;;
11042;SDS011;5574;48.786;10.120;2023-02-08T00:48:32;7.63;;;5.03;;
11042;SDS011;5574;48.786;10.120;2023-02-08T00:50:59;8.87;;;6.50;;
11042;SDS011;5574;48.786;10.120;2023-02-08T00:53:27;8.30;;;7.17;;
11042;SDS011;5574;48.786;10.120;2023-02-08T00:55:54;7.50;;;5.83;;
11042;SDS011;5574;48.786;10.120;2023-02-08T00:58:23;6.80;;;5.87;;
11042;SDS011;5574;48.786;10.120;2023-02-08T01:00:50;8.93;;;5.60;;
11042;SDS011;5574;48.786;10.120;2023-02-08T01:03:17;6.63;;;4.77;;
11042;SDS011;5574;48.786;10.120;2023-02-08T01:05:44;5.83;;;5.03;;
11042;SDS011;5574;48.786;10.120;2023-02-08T01:08:11;6.00;;;4.80;;
11042;SDS011;5574;48.786;10.120;2023-02-08T01:10:37;9.10;;;5.77;;
11042;SDS011;5574;48.786;10.120;2023-02-08T01:13:04;9.17;;;6.60;;
11042;SDS011;5574;48.786;10.120;2023-02-08T01:15:32;10.97;;;7.40;;
11042;SDS011;5574;48.786;10.120;2023-02-08T01:17:59;7.83;;;5.00;;
11042;SDS011;5574;48.786;10.120;2023-02-08T01:20:26;7.43;;;5.33;;
11042;SDS011;5574;48.786;10.120;2023-02-08T01:22:54;8.60;;;5.30;;
11042;SDS011;5574;48.786;10.120;2023-02-08T01:25:20;11.53;;;8.07;;
11042;SDS011;5574;48.786;10.120;2023-02-08T01:27:47;7.33;;;5.23;;
11042;SDS011;5574;48.786;10.120;2023-02-08T01:30:14;7.63;;;5.13;;
11042;SDS011;5574;48.786;10.120;2023-02-08T01:32:42;5.47;;;4.60;;
11042;SDS011;5574;48.786;10.120;2023-02-08T01:35:09;7.60;;;6.20;;
11042;SDS011;5574;48.786;10.120;2023-02-08T01:37:36;8.23;;;4.93;;
11042;SDS011;5574;48.786;10.120;2023-02-08T01:40:03;6.57;;;4.90;;
11042;SDS011;5574;48.786;10.120;2023-02-08T01:42:30;7.97;;;4.70;;
11042;SDS011;5574;48.786;10.120;2023-02-08T01:48:07;5.80;;;4.77;;
11042;SDS011;5574;48.786;10.120;2023-02-08T01:50:40;7.43;;;5.57;;
11042;SDS011;5574;48.786;10.120;2023-02-08T01:53:10;6.03;;;4.57;;
11042;SDS011;5574;48.786;10.120;2023-02-08T01:55:38;7.63;;;5.67;;
11042;SDS011;5574;48.786;10.120;2023-02-08T01:58:11;6.00;;;4.93;;
11042;SDS011;5574;48.786;10.120;2023-02-08T02:00:39;5.40;;;4.30;;
11042;SDS011;5574;48.786;10.120;2023-02-08T02:03:07;5.90;;;4.83;;
11042;SDS011;5574;48.786;10.120;2023-02-08T02:05:34;6.20;;;4.23;;
11042;SDS011;5574;48.786;10.120;2023-02-08T02:08:06;9.83;;;8.23;;
11042;SDS011;5574;48.786;10.120;2023-02-08T02:10:34;6.00;;;4.43;;
11042;SDS011;5574;48.786;10.120;2023-02-08T02:13:03;7.37;;;5.40;;
11042;SDS011;5574;48.786;10.120;2023-02-08T02:15:32;7.07;;;4.80;;
11042;SDS011;5574;48.786;10.120;2023-02-08T02:18:00;6.43;;;5.27;;
11042;SDS011;5574;48.786;10.120;2023-02-08T02:20:32;5.27;;;4.77;;
11042;SDS011;5574;48.786;10.120;2023-02-08T02:23:16;5.83;;;4.17;;
11042;SDS011;5574;48.786;10.120;2023-02-08T02:26:14;8.10;;;5.83;;
11042;SDS011;5574;48.786;10.120;2023-02-08T02:29:08;6.97;;;4.43;;
11042;SDS011;5574;48.786;10.120;2023-02-08T02:32:07;7.93;;;5.33;;
11042;SDS011;5574;48.786;10.120;2023-02-08T02:34:44;10.40;;;5.40;;
11042;SDS011;5574;48.786;10.120;2023-02-08T02:37:18;7.47;;;4.70;;
11042;SDS011;5574;48.786;10.120;2023-02-08T02:39:59;5.97;;;4.60;;
11042;SDS011;5574;48.786;10.120;2023-02-08T02:42:34;15.67;;;8.83;;
11042;SDS011;5574;48.786;10.120;2023-02-08T02:45:25;14.40;;;8.77;;
11042;SDS011;5574;48.786;10.120;2023-02-08T02:48:00;12.77;;;8.00;;
11042;SDS011;5574;48.786;10.120;2023-02-08T02:50:31;10.73;;;7.37;;
11042;SDS011;5574;48.786;10.120;2023-02-08T02:53:02;7.77;;;5.73;;
11042;SDS011;5574;48.786;10.120;2023-02-08T02:55:34;11.60;;;7.37;;
11042;SDS011;5574;48.786;10.120;2023-02-08T02:58:07;9.70;;;6.07;;
11042;SDS011;5574;48.786;10.120;2023-02-08T03:00:36;9.67;;;7.70;;
11042;SDS011;5574;48.786;10.120;2023-02-08T03:03:04;14.53;;;9.30;;
11042;SDS011;5574;48.786;10.120;2023-02-08T03:05:32;9.77;;;7.17;;
11042;SDS011;5574;48.786;10.120;2023-02-08T03:08:08;8.17;;;6.73;;
11042;SDS011;5574;48.786;10.120;2023-02-08T03:10:52;9.60;;;6.80;;
11042;SDS011;5574;48.786;10.120;2023-02-08T03:13:31;8.83;;;5.27;;
11042;SDS011;5574;48.786;10.120;2023-02-08T03:16:15;8.17;;;4.87;;
11042;SDS011;5574;48.786;10.120;2023-02-08T03:18:50;21.53;;;11.90;;
11042;SDS011;5574;48.786;10.120;2023-02-08T03:21:27;23.93;;;13.90;;
11042;SDS011;5574;48.786;10.120;2023-02-08T03:24:06;10.53;;;7.27;;
11042;SDS011;5574;48.786;10.120;2023-02-08T03:26:41;9.43;;;5.57;;
11042;SDS011;5574;48.786;10.120;2023-02-08T03:29:14;9.63;;;6.03;;
11042;SDS011;5574;48.786;10.120;2023-02-08T03:31:51;8.47;;;5.33;;
11042;SDS011;5574;48.786;10.120;2023-02-08T03:34:24;8.70;;;5.00;;
11042;SDS011;5574;48.786;10.120;2023-02-08T03:36:56;9.03;;;5.30;;
11042;SDS011;5574;48.786;10.120;2023-02-08T03:39:27;5.20;;;4.53;;
11042;SDS011;5574;48.786;10.120;2023-02-08T03:41:58;7.00;;;4.70;;
11042;SDS011;5574;48.786;10.120;2023-02-08T03:44:30;7.93;;;5.20;;
11042;SDS011;5574;48.786;10.120;2023-02-08T03:47:01;9.20;;;4.97;;
11042;SDS011;5574;48.786;10.120;2023-02-08T03:49:34;7.43;;;5.23;;
11042;SDS011;5574;48.786;10.120;2023-02-08T03:52:02;9.57;;;5.67;;
11042;SDS011;5574;48.786;10.120;2023-02-08T03:54:33;8.20;;;5.77;;
11042;SDS011;5574;48.786;10.120;2023-02-08T03:57:03;13.07;;;6.17;;
11042;SDS011;5574;48.786;10.120;2023-02-08T03:59:34;8.43;;;6.20;;
11042;SDS011;5574;48.786;10.120;2023-02-08T04:02:05;7.40;;;5.73;;
11042;SDS011;5574;48.786;10.120;2023-02-08T04:04:36;9.37;;;6.70;;
11042;SDS011;5574;48.786;10.120;2023-02-08T04:07:06;10.10;;;7.03;;
11042;SDS011;5574;48.786;10.120;2023-02-08T04:09:33;8.43;;;6.37;;
11042;SDS011;5574;48.786;10.120;2023-02-08T04:12:00;9.80;;;8.13;;
11042;SDS011;5574;48.786;10.120;2023-02-08T04:14:26;11.00;;;8.20;;
11042;SDS011;5574;48.786;10.120;2023-02-08T04:16:54;10.53;;;7.50;;
11042;SDS011;5574;48.786;10.120;2023-02-08T04:19:20;10.83;;;7.30;;
11042;SDS011;5574;48.786;10.120;2023-02-08T04:21:48;7.57;;;6.07;;
11042;SDS011;5574;48.786;10.120;2023-02-08T04:24:15;10.10;;;6.70;;
11042;SDS011;5574;48.786;10.120;2023-02-08T04:26:42;7.30;;;5.63;;
11042;SDS011;5574;48.786;10.120;2023-02-08T04:29:08;10.73;;;6.00;;
11042;SDS011;5574;48.786;10.120;2023-02-08T04:31:35;9.10;;;6.20;;
11042;SDS011;5574;48.786;10.120;2023-02-08T04:34:02;9.27;;;6.50;;
11042;SDS011;5574;48.786;10.120;2023-02-08T04:36:28;9.00;;;6.67;;
11042;SDS011;5574;48.786;10.120;2023-02-08T04:38:56;9.03;;;6.70;;
11042;SDS011;5574;48.786;10.120;2023-02-08T04:41:23;9.47;;;6.70;;
11042;SDS011;5574;48.786;10.120;2023-02-08T04:43:50;9.50;;;6.80;;
11042;SDS011;5574;48.786;10.120;2023-02-08T04:46:16;8.27;;;6.50;;
11042;SDS011;5574;48.786;10.120;2023-02-08T04:48:43;11.67;;;6.73;;
11042;SDS011;5574;48.786;10.120;2023-02-08T04:51:10;10.07;;;6.53;;
11042;SDS011;5574;48.786;10.120;2023-02-08T04:53:36;10.17;;;6.93;;
11042;SDS011;5574;48.786;10.120;2023-02-08T04:56:05;9.80;;;6.37;;
11042;SDS011;5574;48.786;10.120;2023-02-08T04:58:31;9.83;;;6.10;;
11042;SDS011;5574;48.786;10.120;2023-02-08T05:00:58;10.60;;;7.87;;
11042;SDS011;5574;48.786;10.120;2023-02-08T05:03:25;10.33;;;7.00;;
11042;SDS011;5574;48.786;10.120;2023-02-08T05:05:55;14.87;;;7.50;;
11042;SDS011;5574;48.786;10.120;2023-02-08T05:08:22;13.37;;;8.50;;
11042;SDS011;5574;48.786;10.120;2023-02-08T05:10:49;16.70;;;10.33;;
11042;SDS011;5574;48.786;10.120;2023-02-08T05:13:17;12.93;;;8.30;;
11042;SDS011;5574;48.786;10.120;2023-02-08T05:15:44;12.90;;;7.97;;
11042;SDS011;5574;48.786;10.120;2023-02-08T05:18:10;11.83;;;8.67;;
11042;SDS011;5574;48.786;10.120;2023-02-08T05:20:37;15.30;;;9.90;;
11042;SDS011;5574;48.786;10.120;2023-02-08T05:23:04;12.30;;;7.90;;
11042;SDS011;5574;48.786;10.120;2023-02-08T05:25:30;12.97;;;7.43;;
11042;SDS011;5574;48.786;10.120;2023-02-08T05:27:57;10.60;;;7.67;;
11042;SDS011;5574;48.786;10.120;2023-02-08T05:30:25;12.77;;;7.47;;
11042;SDS011;5574;48.786;10.120;2023-02-08T05:32:52;12.07;;;7.67;;
11042;SDS011;5574;48.786;10.120;2023-02-08T05:35:19;11.37;;;7.67;;
11042;SDS011;5574;48.786;10.120;2023-02-08T05:37:45;10.70;;;8.90;;
11042;SDS011;5574;48.786;10.120;2023-02-08T05:40:12;12.53;;;9.10;;
11042;SDS011;5574;48.786;10.120;2023-02-08T05:42:39;13.17;;;8.37;;
11042;SDS011;5574;48.786;10.120;2023-02-08T05:45:06;11.93;;;8.90;;
11042;SDS011;5574;48.786;10.120;2023-02-08T05:47:35;12.90;;;8.70;;
11042;SDS011;5574;48.786;10.120;2023-02-08T05:50:01;13.60;;;8.73;;
11042;SDS011;5574;48.786;10.120;2023-02-08T05:52:28;15.20;;;9.33;;
11042;SDS011;5574;48.786;10.120;2023-02-08T05:54:55;13.80;;;9.13;;
11042;SDS011;5574;48.786;10.120;2023-02-08T05:57:22;12.97;;;8.50;;
11042;SDS011;5574;48.786;10.120;2023-02-08T05:59:48;12.87;;;8.50;;
11042;SDS011;5574;48.786;10.120;2023-02-08T06:02:15;13.07;;;8.77;;
11042;SDS011;5574;48.786;10.120;2023-02-08T06:04:43;15.57;;;9.37;;
11042;SDS011;5574;48.786;10.120;2023-02-08T06:07:10;15.00;;;11.70;;
11042;SDS011;5574;48.786;10.120;2023-02-08T06:09:36;15.83;;;10.57;;
11042;SDS011;5574;48.786;10.120;2023-02-08T06:12:03;13.50;;;8.50;;
11042;SDS011;5574;48.786;10.120;2023-02-08T06:14:31;13.50;;;8.87;;
11042;SDS011;5574;48.786;10.120;2023-02-08T06:16:58;13.03;;;9.03;;
11042;SDS011;5574;48.786;10.120;2023-02-08T06:19:24;40.87;;;21.60;;
11042;SDS011;5574;48.786;10.120;2023-02-08T06:21:52;20.20;;;10.83;;
11042;SDS011;5574;48.786;10.120;2023-02-08T06:24:19;18.60;;;11.57;;
11042;SDS011;5574;48.786;10.120;2023-02-08T06:26:46;17.67;;;11.60;;
11042;SDS011;5574;48.786;10.120;2023-02-08T06:29:13;13.17;;;9.80;;
11042;SDS011;5574;48.786;10.120;2023-02-08T06:31:39;14.20;;;9.43;;
11042;SDS011;5574;48.786;10.120;2023-02-08T06:34:06;14.00;;;9.80;;
11042;SDS011;5574;48.786;10.120;2023-02-08T06:36:33;19.27;;;12.87;;
11042;SDS011;5574;48.786;10.120;2023-02-08T06:39:01;30.30;;;18.17;;
11042;SDS011;5574;48.786;10.120;2023-02-08T06:41:27;13.93;;;9.60;;
11042;SDS011;5574;48.786;10.120;2023-02-08T06:43:54;22.30;;;11.97;;
11042;SDS011;5574;48.786;10.120;2023-02-08T06:46:23;22.70;;;14.00;;
11042;SDS011;5574;48.786;10.120;2023-02-08T06:48:50;33.03;;;17.90;;
11042;SDS011;5574;48.786;10.120;2023-02-08T06:51:16;30.50;;;17.57;;
11042;SDS011;5574;48.786;10.120;2023-02-08T06:53:43;19.43;;;11.97;;
11042;SDS011;5574;48.786;10.120;2023-02-08T06:56:11;14.60;;;8.97;;
11042;SDS011;5574;48.786;10.120;2023-02-08T06:58:38;14.43;;;9.07;;
11042;SDS011;5574;48.786;10.120;2023-02-08T07:01:05;11.03;;;7.93;;
11042;SDS011;5574;48.786;10.120;2023-02-08T07:03:31;11.23;;;8.17;;
11042;SDS011;5574;48.786;10.120;2023-02-08T07:05:59;24.33;;;14.40;;
11042;SDS011;5574;48.786;10.120;2023-02-08T07:08:25;14.83;;;9.63;;
11042;SDS011;5574;48.786;10.120;2023-02-08T07:10:52;14.00;;;8.77;;
11042;SDS011;5574;48.786;10.120;2023-02-08T07:13:20;10.27;;;7.87;;
11042;SDS011;5574;48.786;10.120;2023-02-08T07:15:46;10.70;;;7.67;;
11042;SDS011;5574;48.786;10.120;2023-02-08T07:18:13;11.37;;;7.80;;
11042;SDS011;5574;48.786;10.120;2023-02-08T07:20:40;12.00;;;8.30;;
11042;SDS011;5574;48.786;10.120;2023-02-08T07:23:06;11.30;;;8.27;;
11042;SDS011;5574;48.786;10.120;2023-02-08T07:25:33;11.47;;;8.60;;
11042;SDS011;5574;48.786;10.120;2023-02-08T07:28:00;11.63;;;8.83;;
11042;SDS011;5574;48.786;10.120;2023-02-08T07:30:28;10.47;;;7.03;;
11042;SDS011;5574;48.786;10.120;2023-02-08T07:32:54;11.93;;;8.73;;
11042;SDS011;5574;48.786;10.120;2023-02-08T07:35:21;11.13;;;8.63;;
11042;SDS011;5574;48.786;10.120;2023-02-08T07:37:47;12.93;;;9.23;;
11042;SDS011;5574;48.786;10.120;2023-02-08T07:40:14;12.73;;;9.40;;
11042;SDS011;5574;48.786;10.120;2023-02-08T07:42:41;11.33;;;9.33;;
11042;SDS011;5574;48.786;10.120;2023-02-08T07:45:08;14.07;;;10.13;;
11042;SDS011;5574;48.786;10.120;2023-02-08T07:47:36;13.37;;;10.30;;
11042;SDS011;5574;48.786;10.120;2023-02-08T07:50:02;13.27;;;9.20;;
11042;SDS011;5574;48.786;10.120;2023-02-08T07:52:30;14.57;;;9.97;;
11042;SDS011;5574;48.786;10.120;2023-02-08T07:54:57;13.87;;;9.37;;
11042;SDS011;5574;48.786;10.120;2023-02-08T07:57:23;11.33;;;8.23;;
11042;SDS011;5574;48.786;10.120;2023-02-08T07:59:50;12.73;;;9.57;;
11042;SDS011;5574;48.786;10.120;2023-02-08T08:02:17;14.23;;;8.97;;
11042;SDS011;5574;48.786;10.120;2023-02-08T08:04:45;13.57;;;9.90;;
11042;SDS011;5574;48.786;10.120;2023-02-08T08:07:11;14.33;;;10.67;;
11042;SDS011;5574;48.786;10.120;2023-02-08T08:09:38;13.43;;;10.03;;
11042;SDS011;5574;48.786;10.120;2023-02-08T08:12:05;13.83;;;9.20;;
11042;SDS011;5574;48.786;10.120;2023-02-08T08:14:31;13.73;;;9.37;;
11042;SDS011;5574;48.786;10.120;2023-02-08T08:16:58;12.40;;;9.40;;
11042;SDS011;5574;48.786;10.120;2023-02-08T08:19:25;11.67;;;8.37;;
11042;SDS011;5574;48.786;10.120;2023-02-08T08:21:53;15.03;;;10.63;;
11042;SDS011;5574;48.786;10.120;2023-02-08T08:24:20;12.63;;;9.70;;
11042;SDS011;5574;48.786;10.120;2023-02-08T08:26:46;12.67;;;9.67;;
11042;SDS011;5574;48.786;10.120;2023-02-08T08:29:13;12.40;;;9.93;;
11042;SDS011;5574;48.786;10.120;2023-02-08T08:31:41;13.73;;;7.87;;
11042;SDS011;5574;48.786;10.120;2023-02-08T08:34:08;14.87;;;9.70;;
11042;SDS011;5574;48.786;10.120;2023-02-08T08:36:35;9.47;;;6.20;;
11042;SDS011;5574;48.786;10.120;2023-02-08T08:39:03;9.27;;;7.03;;
11042;SDS011;5574;48.786;10.120;2023-02-08T08:41:29;14.10;;;9.70;;
11042;SDS011;5574;48.786;10.120;2023-02-08T08:43:56;12.50;;;8.97;;
11042;SDS011;5574;48.786;10.120;2023-02-08T08:46:23;13.60;;;8.70;;
11042;SDS011;5574;48.786;10.120;2023-02-08T08:48:49;12.67;;;9.47;;
11042;SDS011;5574;48.786;10.120;2023-02-08T08:51:16;9.53;;;4.07;;
11042;SDS011;5574;48.786;10.120;2023-02-08T08:53:43;13.47;;;9.90;;
11042;SDS011;5574;48.786;10.120;2023-02-08T08:56:11;11.70;;;8.60;;
11042;SDS011;5574;48.786;10.120;2023-02-08T08:58:37;13.73;;;8.60;;
11042;SDS011;5574;48.786;10.120;2023-02-08T09:01:04;13.50;;;8.67;;
11042;SDS011;5574;48.786;10.120;2023-02-08T09:03:31;8.03;;;5.33;;
11042;SDS011;5574;48.786;10.120;2023-02-08T09:05:57;13.73;;;9.07;;
11042;SDS011;5574;48.786;10.120;2023-02-08T09:08:24;5.93;;;4.27;;
11042;SDS011;5574;48.786;10.120;2023-02-08T09:10:51;14.03;;;8.67;;
11042;SDS011;5574;48.786;10.120;2023-02-08T09:13:19;11.83;;;8.07;;
11042;SDS011;5574;48.786;10.120;2023-02-08T09:15:46;3.13;;;2.80;;
11042;SDS011;5574;48.786;10.120;2023-02-08T09:18:13;6.33;;;4.50;;
11042;SDS011;5574;48.786;10.120;2023-02-08T09:20:40;6.87;;;4.80;;
11042;SDS011;5574;48.786;10.120;2023-02-08T09:23:07;9.43;;;6.70;;
11042;SDS011;5574;48.786;10.120;2023-02-08T09:25:34;11.57;;;6.97;;
11042;SDS011;5574;48.786;10.120;2023-02-08T09:28:01;5.93;;;3.83;;
11042;SDS011;5574;48.786;10.120;2023-02-08T09:30:29;12.47;;;6.87;;
11042;SDS011;5574;48.786;10.120;2023-02-08T09:32:56;5.70;;;4.27;;
11042;SDS011;5574;48.786;10.120;2023-02-08T09:35:23;6.00;;;4.20;;
11042;SDS011;5574;48.786;10.120;2023-02-08T09:37:51;10.73;;;7.47;;
11042;SDS011;5574;48.786;10.120;2023-02-08T09:40:20;8.67;;;6.63;;
11042;SDS011;5574;48.786;10.120;2023-02-08T09:42:52;12.43;;;7.17;;
11042;SDS011;5574;48.786;10.120;2023-02-08T09:45:35;9.83;;;6.70;;
11042;SDS011;5574;48.786;10.120;2023-02-08T09:48:13;10.40;;;7.33;;
11042;SDS011;5574;48.786;10.120;2023-02-08T09:50:45;8.60;;;5.63;;
11042;SDS011;5574;48.786;10.120;2023-02-08T09:53:14;6.20;;;3.53;;
11042;SDS011;5574;48.786;10.120;2023-02-08T09:55:45;7.00;;;4.47;;
11042;SDS011;5574;48.786;10.120;2023-02-08T09:58:16;3.83;;;3.13;;
11042;SDS011;5574;48.786;10.120;2023-02-08T10:00:50;13.17;;;3.73;;
11042;SDS011;5574;48.786;10.120;2023-02-08T10:03:20;6.27;;;4.50;;
11042;SDS011;5574;48.786;10.120;2023-02-08T10:05:52;8.43;;;4.57;;
11042;SDS011;5574;48.786;10.120;2023-02-08T10:08:19;7.73;;;4.17;;
11042;SDS011;5574;48.786;10.120;2023-02-08T10:10:48;8.67;;;7.03;;
11042;SDS011;5574;48.786;10.120;2023-02-08T10:13:23;8.87;;;6.30;;
11042;SDS011;5574;48.786;10.120;2023-02-08T10:16:07;7.33;;;5.73;;
11042;SDS011;5574;48.786;10.120;2023-02-08T10:18:42;6.23;;;3.17;;
11042;SDS011;5574;48.786;10.120;2023-02-08T10:21:19;4.93;;;2.83;;
11042;SDS011;5574;48.786;10.120;2023-02-08T10:24:09;7.60;;;4.80;;
11042;SDS011;5574;48.786;10.120;2023-02-08T10:26:51;5.60;;;4.17;;
11042;SDS011;5574;48.786;10.120;2023-02-08T10:29:41;4.93;;;3.40;;
11042;SDS011;5574;48.786;10.120;2023-02-08T10:32:29;5.77;;;4.27;;
11042;SDS011;5574;48.786;10.120;2023-02-08T10:35:03;3.03;;;2.73;;
11042;SDS011;5574;48.786;10.120;2023-02-08T10:37:36;8.47;;;4.70;;
11042;SDS011;5574;48.786;10.120;2023-02-08T10:40:13;6.93;;;4.90;;
11042;SDS011;5574;48.786;10.120;2023-02-08T10:42:47;7.87;;;6.07;;
11042;SDS011;5574;48.786;10.120;2023-02-08T10:45:17;7.07;;;5.47;;
11042;SDS011;5574;48.786;10.120;2023-02-08T10:47:51;3.43;;;2.63;;
11042;SDS011;5574;48.786;10.120;2023-02-08T10:50:22;8.63;;;6.10;;
11042;SDS011;5574;48.786;10.120;2023-02-08T10:52:54;3.60;;;3.00;;
11042;SDS011;5574;48.786;10.120;2023-02-08T10:55:21;7.10;;;5.60;;
11042;SDS011;5574;48.786;10.120;2023-02-08T10:57:48;6.43;;;4.50;;
11042;SDS011;5574;48.786;10.120;2023-02-08T11:00:18;5.70;;;4.27;;
11042;SDS011;5574;48.786;10.120;2023-02-08T11:02:48;3.53;;;3.00;;
11042;SDS011;5574;48.786;10.120;2023-02-08T11:05:18;10.17;;;3.77;;
11042;SDS011;5574;48.786;10.120;2023-02-08T11:07:47;7.33;;;4.60;;
11042;SDS011;5574;48.786;10.120;2023-02-08T11:10:30;6.53;;;4.43;;
11042;SDS011;5574;48.786;10.120;2023-02-08T11:12:58;4.43;;;3.33;;
11042;SDS011;5574;48.786;10.120;2023-02-08T11:15:28;5.83;;;3.97;;
11042;SDS011;5574;48.786;10.120;2023-02-08T11:17:59;6.60;;;5.07;;
11042;SDS011;5574;48.786;10.120;2023-02-08T11:20:30;4.07;;;3.33;;
11042;SDS011;5574;48.786;10.120;2023-02-08T11:23:00;4.97;;;3.77;;
11042;SDS011;5574;48.786;10.120;2023-02-08T11:25:32;3.80;;;3.43;;
11042;SDS011;5574;48.786;10.120;2023-02-08T11:28:01;12.03;;;7.70;;
11042;SDS011;5574;48.786;10.120;2023-02-08T11:30:28;7.13;;;5.20;;
11042;SDS011;5574;48.786;10.120;2023-02-08T11:33:14;6.93;;;4.40;;
11042;SDS011;5574;48.786;10.120;2023-02-08T11:35:55;5.30;;;2.93;;
11042;SDS011;5574;48.786;10.120;2023-02-08T11:38:30;9.37;;;6.27;;
11042;SDS011;5574;48.786;10.120;2023-02-08T11:41:00;3.73;;;3.30;;
11042;SDS011;5574;48.786;10.120;2023-02-08T11:43:29;7.97;;;4.23;;
11042;SDS011;5574;48.786;10.120;2023-02-08T11:45:58;6.20;;;4.93;;
11042;SDS011;5574;48.786;10.120;2023-02-08T11:48:29;4.43;;;3.30;;
11042;SDS011;5574;48.786;10.120;2023-02-08T11:51:04;4.70;;;3.37;;
11042;SDS011;5574;48.786;10.120;2023-02-08T11:53:32;4.53;;;4.03;;
11042;SDS011;5574;48.786;10.120;2023-02-08T11:56:03;7.50;;;4.43;;
11042;SDS011;5574;48.786;10.120;2023-02-08T11:58:32;3.10;;;2.47;;
11042;SDS011;5574;48.786;10.120;2023-02-08T12:01:00;3.37;;;2.67;;
11042;SDS011;5574;48.786;10.120;2023-02-08T12:03:29;5.77;;;3.90;;
11042;SDS011;5574;48.786;10.120;2023-02-08T12:06:01;3.20;;;2.90;;
11042;SDS011;5574;48.786;10.120;2023-02-08T12:08:45;4.07;;;2.83;;
11042;SDS011;5574;48.786;10.120;2023-02-08T12:11:22;8.40;;;5.50;;
11042;SDS011;5574;48.786;10.120;2023-02-08T12:13:56;5.73;;;5.07;;
11042;SDS011;5574;48.786;10.120;2023-02-08T12:16:35;6.80;;;5.27;;
11042;SDS011;5574;48.786;10.120;2023-02-08T12:19:23;6.43;;;3.87;;
11042;SDS011;5574;48.786;10.120;2023-02-08T12:22:12;4.87;;;4.30;;
11042;SDS011;5574;48.786;10.120;2023-02-08T12:24:45;6.93;;;5.40;;
11042;SDS011;5574;48.786;10.120;2023-02-08T12:27:20;5.67;;;3.80;;
11042;SDS011;5574;48.786;10.120;2023-02-08T12:29:58;3.30;;;2.97;;
11042;SDS011;5574;48.786;10.120;2023-02-08T12:32:41;6.07;;;3.77;;
11042;SDS011;5574;48.786;10.120;2023-02-08T12:35:30;7.70;;;6.40;;
11042;SDS011;5574;48.786;10.120;2023-02-08T12:38:32;4.40;;;2.87;;
11042;SDS011;5574;48.786;10.120;2023-02-08T12:41:31;10.07;;;5.13;;
11042;SDS011;5574;48.786;10.120;2023-02-08T12:44:06;5.67;;;3.87;;
11042;SDS011;5574;48.786;10.120;2023-02-08T12:46:43;7.70;;;5.13;;
11042;SDS011;5574;48.786;10.120;2023-02-08T12:49:26;8.60;;;5.57;;
11042;SDS011;5574;48.786;10.120;2023-02-08T12:52:16;7.47;;;4.90;;
11042;SDS011;5574;48.786;10.120;2023-02-08T12:54:53;3.50;;;2.60;;
11042;SDS011;5574;48.786;10.120;2023-02-08T12:57:23;1.73;;;1.37;;
11042;SDS011;5574;48.786;10.120;2023-02-08T12:59:54;1.83;;;1.53;;
11042;SDS011;5574;48.786;10.120;2023-02-08T13:02:25;4.40;;;2.83;;
11042;SDS011;5574;48.786;10.120;2023-02-08T13:04:57;4.87;;;4.33;;
11042;SDS011;5574;48.786;10.120;2023-02-08T13:07:29;6.03;;;3.80;;
11042;SDS011;5574;48.786;10.120;2023-02-08T13:10:02;5.97;;;5.30;;
11042;SDS011;5574;48.786;10.120;2023-02-08T13:12:33;2.17;;;1.17;;
11042;SDS011;5574;48.786;10.120;2023-02-08T13:15:06;3.07;;;2.73;;
11042;SDS011;5574;48.786;10.120;2023-02-08T13:17:40;3.33;;;2.47;;
11042;SDS011;5574;48.786;10.120;2023-02-08T13:20:15;6.60;;;4.07;;
11042;SDS011;5574;48.786;10.120;2023-02-08T13:22:55;5.13;;;4.00;;
11042;SDS011;5574;48.786;10.120;2023-02-08T13:25:28;3.60;;;2.47;;
11042;SDS011;5574;48.786;10.120;2023-02-08T13:28:01;5.73;;;4.40;;
11042;SDS011;5574;48.786;10.120;2023-02-08T13:30:28;4.03;;;2.37;;
11042;SDS011;5574;48.786;10.120;2023-02-08T13:32:57;1.93;;;1.73;;
11042;SDS011;5574;48.786;10.120;2023-02-08T13:35:30;6.10;;;4.13;;
11042;SDS011;5574;48.786;10.120;2023-02-08T13:37:59;2.97;;;2.17;;
11042;SDS011;5574;48.786;10.120;2023-02-08T13:40:30;2.73;;;2.20;;
11042;SDS011;5574;48.786;10.120;2023-02-08T13:42:59;2.50;;;2.00;;
11042;SDS011;5574;48.786;10.120;2023-02-08T13:45:28;3.47;;;3.17;;
11042;SDS011;5574;48.786;10.120;2023-02-08T13:47:58;5.43;;;3.23;;
11042;SDS011;5574;48.786;10.120;2023-02-08T13:50:36;2.63;;;2.13;;
11042;SDS011;5574;48.786;10.120;2023-02-08T13:53:08;3.97;;;2.83;;
11042;SDS011;5574;48.786;10.120;2023-02-08T14:01:26;2.53;;;2.33;;
11042;SDS011;5574;48.786;10.120;2023-02-08T14:06:58;2.93;;;2.23;;
11042;SDS011;5574;48.786;10.120;2023-02-08T14:09:41;6.10;;;3.27;;
11042;SDS011;5574;48.786;10.120;2023-02-08T14:12:15;4.77;;;2.90;;
11042;SDS011;5574;48.786;10.120;2023-02-08T14:15:03;5.47;;;3.70;;
11042;SDS011;5574;48.786;10.120;2023-02-08T14:17:49;4.77;;;3.13;;
11042;SDS011;5574;48.786;10.120;2023-02-08T14:20:19;2.43;;;1.90;;
11042;SDS011;5574;48.786;10.120;2023-02-08T14:22:50;4.73;;;2.80;;
11042;SDS011;5574;48.786;10.120;2023-02-08T14:25:19;4.23;;;3.50;;
11042;SDS011;5574;48.786;10.120;2023-02-08T14:27:51;4.17;;;3.10;;
11042;SDS011;5574;48.786;10.120;2023-02-08T14:30:21;4.30;;;3.07;;
11042;SDS011;5574;48.786;10.120;2023-02-08T14:32:52;10.57;;;4.83;;
11042;SDS011;5574;48.786;10.120;2023-02-08T14:35:33;6.03;;;4.53;;
11042;SDS011;5574;48.786;10.120;2023-02-08T14:41:00;4.67;;;2.83;;
11042;SDS011;5574;48.786;10.120;2023-02-08T14:43:31;7.47;;;4.53;;
11042;SDS011;5574;48.786;10.120;2023-02-08T14:48:59;6.63;;;3.37;;
11042;SDS011;5574;48.786;10.120;2023-02-08T14:51:27;8.37;;;4.63;;
11042;SDS011;5574;48.786;10.120;2023-02-08T14:54:03;6.30;;;3.83;;
11042;SDS011;5574;48.786;10.120;2023-02-08T14:56:44;5.20;;;3.90;;
11042;SDS011;5574;48.786;10.120;2023-02-08T14:59:19;7.27;;;5.23;;
11042;SDS011;5574;48.786;10.120;2023-02-08T15:01:49;8.27;;;6.23;;
11042;SDS011;5574;48.786;10.120;2023-02-08T15:04:19;6.63;;;5.33;;
11042;SDS011;5574;48.786;10.120;2023-02-08T15:09:46;7.97;;;5.57;;
11042;SDS011;5574;48.786;10.120;2023-02-08T15:12:23;6.67;;;5.03;;
11042;SDS011;5574;48.786;10.120;2023-02-08T15:14:53;5.57;;;3.53;;
11042;SDS011;5574;48.786;10.120;2023-02-08T15:17:26;4.77;;;3.60;;
11042;SDS011;5574;48.786;10.120;2023-02-08T15:19:57;7.07;;;4.77;;
11042;SDS011;5574;48.786;10.120;2023-02-08T15:22:30;7.50;;;5.90;;
11042;SDS011;5574;48.786;10.120;2023-02-08T15:24:59;6.93;;;5.10;;